createdAt,value
2023-04-18T00:02:04.024Z,8.60
2023-04-18T00:04:52.199Z,8.60
2023-04-18T00:07:39.318Z,8.70
2023-04-18T00:10:25.984Z,8.70
2023-04-18T00:13:12.214Z,8.70
2023-04-18T00:15:59.035Z,8.70
2023-04-18T00:18:45.655Z,8.60
2023-04-18T00:21:33.509Z,8.60
2023-04-18T00:24:20.439Z,8.50
2023-04-18T00:27:07.049Z,8.50
2023-04-18T00:29:54.411Z,8.40
2023-04-18T00:32:40.905Z,8.40
2023-04-18T00:35:27.884Z,8.30
2023-04-18T00:38:15.611Z,8.30
2023-04-18T00:41:02.245Z,8.20
2023-04-18T00:43:48.775Z,8.20
2023-04-18T00:46:35.202Z,8.20
2023-04-18T00:49:22.862Z,8.20
2023-04-18T00:52:09.667Z,8.10
2023-04-18T00:54:57.494Z,8.10
2023-04-18T00:57:43.768Z,8.20
2023-04-18T01:00:30.283Z,8.20
2023-04-18T01:03:18.242Z,8.20
2023-04-18T01:06:06.395Z,8.20
2023-04-18T01:08:53.986Z,8.20
2023-04-18T01:11:41.944Z,8.10
2023-04-18T01:14:29.344Z,8.10
2023-04-18T01:17:16.271Z,8.10
2023-04-18T01:20:06.172Z,8.10
2023-04-18T01:22:53.446Z,8.10
2023-04-18T01:25:42.073Z,8.10
2023-04-18T01:28:28.468Z,8.10
2023-04-18T01:31:16.009Z,8.10
2023-04-18T01:34:02.950Z,8.10
2023-04-18T01:36:49.781Z,8.20
2023-04-18T01:39:36.380Z,8.20
2023-04-18T01:42:24.255Z,8.20
2023-04-18T01:45:12.206Z,8.30
2023-04-18T01:48:01.998Z,8.30
2023-04-18T01:50:48.907Z,8.30
2023-04-18T01:53:35.264Z,8.30
2023-04-18T01:56:21.892Z,8.30
2023-04-18T01:59:09.889Z,8.30
2023-04-18T02:01:56.916Z,8.40
2023-04-18T02:04:44.273Z,8.40
2023-04-18T02:07:30.590Z,8.30
2023-04-18T02:10:17.108Z,8.30
2023-04-18T02:13:06.611Z,8.20
2023-04-18T02:15:54.759Z,8.20
2023-04-18T02:18:44.033Z,8.20
2023-04-18T02:21:31.267Z,8.30
2023-04-18T02:24:17.920Z,8.30
2023-04-18T02:27:04.437Z,8.30
2023-04-18T02:29:51.207Z,8.30
2023-04-18T02:32:39.387Z,8.30
2023-04-18T02:35:27.042Z,8.30
2023-04-18T02:38:13.781Z,8.20
2023-04-18T02:41:00.695Z,8.20
2023-04-18T02:43:47.241Z,8.20
2023-04-18T02:46:35.513Z,8.20
2023-04-18T02:49:25.680Z,8.20
2023-04-18T02:52:12.080Z,8.10
2023-04-18T02:54:58.944Z,8.20
2023-04-18T02:57:50.536Z,8.20
2023-04-18T03:00:56.877Z,8.10
2023-04-18T03:04:06.894Z,8.10
2023-04-18T03:07:03.115Z,8.00
2023-04-18T03:09:54.077Z,8.00
2023-04-18T03:12:48.889Z,7.90
2023-04-18T03:15:38.021Z,7.90
2023-04-18T03:18:25.424Z,8.00
2023-04-18T03:21:15.819Z,8.00
2023-04-18T03:24:03.889Z,8.00
2023-04-18T03:26:53.433Z,8.00
2023-04-18T03:29:43.921Z,8.00
2023-04-18T03:32:33.692Z,7.90
2023-04-18T03:35:20.777Z,7.90
2023-04-18T03:38:07.517Z,7.90
2023-04-18T03:40:58.555Z,7.80
2023-04-18T03:43:51.940Z,7.90
2023-04-18T03:46:39.022Z,7.90
2023-04-18T03:49:26.491Z,7.80
2023-04-18T03:52:13.276Z,7.80
2023-04-18T03:55:01.662Z,7.80
2023-04-18T03:57:54.017Z,7.80
2023-04-18T04:00:46.668Z,7.80
2023-04-18T04:03:33.486Z,7.70
2023-04-18T04:06:20.323Z,7.60
2023-04-18T04:09:07.177Z,7.50
2023-04-18T04:11:54.062Z,7.50
2023-04-18T04:14:42.575Z,7.60
2023-04-18T04:17:29.596Z,7.60
2023-04-18T04:20:22.865Z,7.60
2023-04-18T04:23:10.368Z,7.60
2023-04-18T04:26:03.093Z,7.50
2023-04-18T04:28:58.664Z,7.50
2023-04-18T04:31:49.042Z,7.40
2023-04-18T04:34:50.855Z,7.30
2023-04-18T04:37:38.612Z,7.30
2023-04-18T04:40:37.968Z,7.30
2023-04-18T04:43:29.517Z,7.30
2023-04-18T04:46:20.120Z,7.20
2023-04-18T04:49:11.037Z,7.30
2023-04-18T04:51:58.663Z,7.20
2023-04-18T04:54:46.657Z,7.20
2023-04-18T04:57:35.749Z,7.20
2023-04-18T05:00:29.525Z,7.20
2023-04-18T05:03:16.062Z,7.20
2023-04-18T05:06:04.241Z,7.20
2023-04-18T05:08:51.651Z,7.20
2023-04-18T05:11:38.162Z,7.30
2023-04-18T05:14:25.922Z,7.40
2023-04-18T05:17:12.631Z,7.30
2023-04-18T05:19:58.863Z,7.30
2023-04-18T05:22:46.596Z,7.30
2023-04-18T05:25:33.635Z,7.30
2023-04-18T05:28:20.038Z,7.40
2023-04-18T05:31:07.428Z,7.30
2023-04-18T05:33:54.092Z,7.40
2023-04-18T05:36:40.459Z,7.40
2023-04-18T05:39:28.298Z,7.50
2023-04-18T05:42:14.943Z,7.60
2023-04-18T05:45:01.912Z,7.60
2023-04-18T05:47:48.451Z,7.60
2023-04-18T05:50:35.390Z,7.70
2023-04-18T05:53:21.975Z,7.70
2023-04-18T05:56:10.056Z,7.80
2023-04-18T05:58:56.872Z,7.70
2023-04-18T06:01:44.246Z,7.70
2023-04-18T06:04:30.983Z,7.70
2023-04-18T06:07:17.806Z,7.70
2023-04-18T06:10:05.663Z,7.70
2023-04-18T06:12:53.849Z,7.80
2023-04-18T06:15:41.651Z,7.90
2023-04-18T06:18:28.073Z,7.70
2023-04-18T06:21:14.737Z,7.80
2023-04-18T06:24:01.572Z,8.00
2023-04-18T06:26:48.636Z,8.00
2023-04-18T06:29:38.270Z,8.10
2023-04-18T06:32:25.406Z,8.30
2023-04-18T06:35:12.153Z,8.10
2023-04-18T06:37:58.758Z,8.10
2023-04-18T06:40:45.457Z,8.40
2023-04-18T06:43:32.065Z,8.20
2023-04-18T06:46:20.696Z,8.30
2023-04-18T06:49:07.404Z,8.30
2023-04-18T06:51:53.631Z,8.30
2023-04-18T06:54:40.205Z,8.20
2023-04-18T06:57:27.231Z,8.20
2023-04-18T07:00:14.845Z,8.20
2023-04-18T07:03:11.187Z,8.30
2023-04-18T07:05:58.135Z,8.20
2023-04-18T07:08:44.595Z,8.20
2023-04-18T07:11:31.201Z,8.20
2023-04-18T07:14:19.830Z,8.40
2023-04-18T07:17:06.456Z,8.60
2023-04-18T07:19:54.660Z,8.90
2023-04-18T07:22:41.940Z,9.10
2023-04-18T07:25:28.593Z,9.00
2023-04-18T07:28:15.570Z,9.00
2023-04-18T07:31:03.727Z,9.00
2023-04-18T07:33:51.035Z,9.40
2023-04-18T07:36:39.074Z,10.00
2023-04-18T07:39:25.904Z,10.70
2023-04-18T07:42:12.853Z,11.40
2023-04-18T07:44:59.586Z,11.50
2023-04-18T07:47:45.989Z,11.00
2023-04-18T07:50:32.898Z,10.20
2023-04-18T07:53:21.816Z,9.90
2023-04-18T07:56:08.685Z,9.70
2023-04-18T07:58:55.657Z,9.60
2023-04-18T08:01:42.070Z,9.40
2023-04-18T08:04:30.295Z,9.30
2023-04-18T08:07:17.676Z,9.30
2023-04-18T08:10:06.183Z,9.40
2023-04-18T08:12:53.040Z,9.50
2023-04-18T08:15:39.847Z,9.40
2023-04-18T08:18:26.815Z,9.30
2023-04-18T08:21:13.169Z,9.30
2023-04-18T08:23:59.627Z,9.20
2023-04-18T08:26:47.941Z,9.30
2023-04-18T08:29:34.320Z,9.40
2023-04-18T08:32:20.807Z,9.30
2023-04-18T08:35:08.078Z,9.30
2023-04-18T08:37:54.775Z,9.40
2023-04-18T08:40:41.246Z,9.30
2023-04-18T08:43:31.122Z,9.40
2023-04-18T08:46:19.022Z,9.50
2023-04-18T08:49:06.232Z,9.60
2023-04-18T08:51:53.983Z,9.60
2023-04-18T08:54:42.981Z,9.70
2023-04-18T08:57:31.063Z,9.80
2023-04-18T09:00:20.496Z,9.90
2023-04-18T09:03:07.514Z,10.00
2023-04-18T09:06:08.276Z,10.30
2023-04-18T09:08:59.620Z,11.00
2023-04-18T09:11:45.822Z,11.80
2023-04-18T09:14:32.686Z,12.00
2023-04-18T09:17:34.660Z,12.30
2023-04-18T09:20:34.456Z,11.70
2023-04-18T09:23:26.027Z,11.60
2023-04-18T09:26:12.620Z,11.20
2023-04-18T09:28:59.593Z,11.10
2023-04-18T09:32:01.247Z,11.10
2023-04-18T09:34:49.820Z,11.30
2023-04-18T09:37:36.817Z,11.40
2023-04-18T09:40:24.512Z,11.60
2023-04-18T09:43:20.083Z,12.00
2023-04-18T09:46:07.187Z,11.70
2023-04-18T09:48:53.781Z,11.30
2023-04-18T09:51:44.336Z,11.20
2023-04-18T09:54:34.024Z,11.20
2023-04-18T09:57:20.986Z,11.30
2023-04-18T10:00:14.185Z,11.40
2023-04-18T10:03:08.114Z,11.50
2023-04-18T10:05:57.657Z,11.50
2023-04-18T10:08:47.075Z,11.50
2023-04-18T10:11:33.966Z,11.50
2023-04-18T10:14:21.441Z,11.50
2023-04-18T10:17:09.395Z,11.50
2023-04-18T10:20:08.034Z,11.50
2023-04-18T10:22:56.654Z,11.50
2023-04-18T10:25:51.576Z,11.70
2023-04-18T10:28:52.841Z,12.00
2023-04-18T10:31:41.200Z,12.10
2023-04-18T10:34:28.158Z,12.40
2023-04-18T10:37:17.671Z,12.50
2023-04-18T10:40:05.917Z,12.50
2023-04-18T10:43:03.107Z,12.60
2023-04-18T10:46:23.805Z,12.50
2023-04-18T10:49:16.504Z,12.50
2023-04-18T10:52:05.980Z,12.40
2023-04-18T10:54:58.412Z,12.30
2023-04-18T10:57:47.507Z,12.40
2023-04-18T11:00:36.134Z,12.40
2023-04-18T11:03:33.684Z,12.40
2023-04-18T11:06:21.663Z,12.50
2023-04-18T11:09:11.782Z,12.50
2023-04-18T11:12:07.543Z,12.60
2023-04-18T11:14:54.567Z,12.70
2023-04-18T11:17:45.891Z,12.90
2023-04-18T11:20:39.848Z,13.10
2023-04-18T11:23:26.554Z,13.20
2023-04-18T11:26:17.402Z,13.30
2023-04-18T11:29:04.580Z,13.50
2023-04-18T11:31:53.052Z,13.30
2023-04-18T11:34:42.202Z,13.20
2023-04-18T11:37:28.988Z,13.10
2023-04-18T11:40:15.433Z,13.00
2023-04-18T11:43:02.714Z,12.90
2023-04-18T11:45:54.542Z,12.80
2023-04-18T11:48:42.350Z,12.80
2023-04-18T11:51:38.414Z,12.90
2023-04-18T11:54:39.297Z,12.90
2023-04-18T11:57:28.448Z,12.90
2023-04-18T12:00:16.264Z,12.90
2023-04-18T12:03:05.293Z,13.00
2023-04-18T12:06:00.052Z,13.10
2023-04-18T12:08:48.475Z,13.00
2023-04-18T12:11:35.028Z,13.00
2023-04-18T12:14:22.446Z,13.10
2023-04-18T12:17:09.046Z,13.20
2023-04-18T12:19:55.631Z,13.10
2023-04-18T12:22:44.922Z,13.10
2023-04-18T12:25:33.614Z,13.10
2023-04-18T12:28:21.229Z,13.30
2023-04-18T12:31:08.126Z,13.30
2023-04-18T12:33:54.972Z,13.30
2023-04-18T12:36:41.936Z,13.30
2023-04-18T12:39:28.955Z,13.30
2023-04-18T12:42:16.798Z,13.40
2023-04-18T12:45:03.828Z,13.50
2023-04-18T12:47:51.546Z,13.70
2023-04-18T12:50:38.271Z,13.90
2023-04-18T12:53:25.635Z,14.10
2023-04-18T12:56:12.798Z,14.10
2023-04-18T12:59:00.575Z,14.20
2023-04-18T13:01:47.141Z,14.10
2023-04-18T13:04:34.399Z,14.10
2023-04-18T13:07:21.606Z,14.10
2023-04-18T13:10:09.333Z,14.00
2023-04-18T13:12:55.726Z,14.00
2023-04-18T13:15:44.150Z,14.10
2023-04-18T13:18:31.147Z,14.10
2023-04-18T13:21:18.180Z,14.10
2023-04-18T13:24:05.193Z,14.10
2023-04-18T13:26:52.242Z,14.10
2023-04-18T13:29:41.166Z,14.00
2023-04-18T13:32:29.512Z,14.10
2023-04-18T13:35:16.222Z,14.20
2023-04-18T13:38:02.891Z,14.20
2023-04-18T13:40:52.022Z,14.20
2023-04-18T13:43:45.058Z,14.30
2023-04-18T13:46:32.063Z,14.30
2023-04-18T13:49:20.428Z,14.20
2023-04-18T13:52:07.078Z,14.20
2023-04-18T13:54:54.205Z,14.30
2023-04-18T13:57:41.140Z,14.30
2023-04-18T14:00:27.984Z,14.40
2023-04-18T14:03:14.765Z,14.30
2023-04-18T14:06:02.778Z,14.00
2023-04-18T14:08:51.102Z,14.00
2023-04-18T14:11:37.786Z,14.10
2023-04-18T14:14:24.381Z,14.10
2023-04-18T14:17:10.776Z,14.20
2023-04-18T14:19:57.178Z,14.30
2023-04-18T14:22:45.582Z,14.30
2023-04-18T14:25:32.204Z,14.30
2023-04-18T14:28:21.558Z,14.30
2023-04-18T14:31:09.988Z,14.30
2023-04-18T14:33:56.793Z,14.40
2023-04-18T14:36:43.780Z,14.50
2023-04-18T14:39:32.398Z,14.50
2023-04-18T14:42:19.909Z,14.50
2023-04-18T14:45:08.308Z,14.50
2023-04-18T14:47:55.781Z,14.50
2023-04-18T14:50:43.692Z,14.50
2023-04-18T14:53:30.740Z,14.50
2023-04-18T14:56:20.992Z,14.60
2023-04-18T14:59:07.525Z,14.50
2023-04-18T15:01:53.988Z,14.60
2023-04-18T15:04:41.018Z,14.60
2023-04-18T15:07:27.843Z,14.50
2023-04-18T15:10:15.252Z,14.40
2023-04-18T15:13:03.657Z,14.40
2023-04-18T15:15:54.099Z,14.40
2023-04-18T15:18:40.660Z,14.30
2023-04-18T15:21:27.207Z,14.30
2023-04-18T15:24:14.173Z,14.40
2023-04-18T15:27:01.399Z,14.30
2023-04-18T15:29:49.155Z,14.30
2023-04-18T15:32:36.896Z,14.40
2023-04-18T15:35:23.905Z,14.40
2023-04-18T15:38:10.987Z,14.40
2023-04-18T15:40:57.822Z,14.30
2023-04-18T15:43:45.559Z,14.40
2023-04-18T15:46:33.612Z,14.30
2023-04-18T15:49:20.491Z,14.40
2023-04-18T15:52:08.326Z,14.40
2023-04-18T15:54:55.215Z,14.40
2023-04-18T15:57:42.713Z,14.40
2023-04-18T16:00:29.397Z,14.40
2023-04-18T16:03:17.316Z,14.30
2023-04-18T16:06:04.509Z,14.30
2023-04-18T16:08:51.299Z,14.30
2023-04-18T16:11:37.692Z,14.30
2023-04-18T16:14:24.219Z,14.30
2023-04-18T16:17:11.088Z,14.30
2023-04-18T16:19:58.973Z,14.30
2023-04-18T16:22:45.830Z,14.30
2023-04-18T16:25:32.801Z,14.30
2023-04-18T16:28:19.608Z,14.20
2023-04-18T16:31:07.251Z,14.20
2023-04-18T16:33:54.063Z,14.20
2023-04-18T16:36:42.322Z,14.20
2023-04-18T16:39:30.940Z,14.20
2023-04-18T16:42:17.657Z,14.10
2023-04-18T16:45:04.752Z,14.20
2023-04-18T16:47:51.504Z,14.20
2023-04-18T16:50:38.434Z,14.20
2023-04-18T16:53:26.640Z,14.10
2023-04-18T16:56:13.274Z,14.00
2023-04-18T16:58:59.861Z,14.00
2023-04-18T17:01:46.401Z,14.00
2023-04-18T17:04:33.302Z,13.90
2023-04-18T17:07:20.262Z,13.90
2023-04-18T17:10:10.125Z,13.90
2023-04-18T17:12:57.036Z,13.90
2023-04-18T17:15:44.015Z,13.90
2023-04-18T17:18:30.947Z,13.90
2023-04-18T17:21:17.388Z,13.90
2023-04-18T17:24:05.766Z,13.90
2023-04-18T17:26:53.606Z,13.80
2023-04-18T17:29:40.930Z,13.80
2023-04-18T17:32:28.455Z,13.80
2023-04-18T17:35:15.561Z,13.80
2023-04-18T17:38:02.095Z,13.80
2023-04-18T17:40:48.832Z,13.70
2023-04-18T17:43:36.667Z,13.60
2023-04-18T17:46:23.323Z,13.60
2023-04-18T17:49:10.512Z,13.50
2023-04-18T17:51:57.228Z,13.40
2023-04-18T17:54:44.567Z,13.40
2023-04-18T17:57:33.507Z,13.30
2023-04-18T18:00:21.840Z,13.20
2023-04-18T18:03:13.537Z,13.10
2023-04-18T18:06:00.684Z,13.10
2023-04-18T18:08:47.615Z,13.00
2023-04-18T18:11:33.931Z,12.90
2023-04-18T18:14:21.363Z,12.90
2023-04-18T18:17:09.601Z,12.90
2023-04-18T18:19:56.166Z,12.80
2023-04-18T18:22:42.655Z,12.80
2023-04-18T18:25:29.382Z,12.70
2023-04-18T18:28:16.297Z,12.70
2023-04-18T18:31:02.765Z,12.70
2023-04-18T18:33:50.987Z,12.60
2023-04-18T18:36:37.432Z,12.70
2023-04-18T18:39:24.256Z,12.60
2023-04-18T18:42:10.836Z,12.60
2023-04-18T18:44:57.283Z,12.60
2023-04-18T18:47:44.145Z,12.60
2023-04-18T18:50:32.426Z,12.50
2023-04-18T18:53:19.087Z,12.50
2023-04-18T18:56:06.170Z,12.50
2023-04-18T18:58:56.017Z,12.40
2023-04-18T19:01:42.955Z,12.40
2023-04-18T19:04:30.113Z,12.40
2023-04-18T19:07:18.388Z,12.30
2023-04-18T19:10:06.225Z,12.30
2023-04-18T19:12:53.131Z,12.30
2023-04-18T19:15:39.509Z,12.30
2023-04-18T19:18:25.979Z,12.30
2023-04-18T19:21:13.035Z,12.20
2023-04-18T19:24:00.776Z,12.20
2023-04-18T19:26:47.544Z,12.20
2023-04-18T19:29:34.184Z,12.10
2023-04-18T19:32:20.992Z,12.10
2023-04-18T19:35:09.842Z,12.10
2023-04-18T19:38:01.411Z,12.10
2023-04-18T19:40:49.780Z,12.00
2023-04-18T19:43:38.334Z,12.00
2023-04-18T19:46:26.232Z,12.00
2023-04-18T19:49:13.102Z,11.90
2023-04-18T19:51:59.868Z,11.90
2023-04-18T19:54:46.316Z,11.90
2023-04-18T19:57:38.926Z,11.90
2023-04-18T20:00:25.578Z,11.90
2023-04-18T20:03:12.604Z,11.90
2023-04-18T20:05:59.524Z,11.80
2023-04-18T20:08:46.588Z,11.80
2023-04-18T20:11:33.332Z,11.70
2023-04-18T20:14:21.258Z,11.70
2023-04-18T20:17:07.986Z,11.60
2023-04-18T20:19:57.000Z,11.60
2023-04-18T20:22:46.204Z,11.60
2023-04-18T20:25:35.130Z,11.60
2023-04-18T20:28:22.110Z,11.50
2023-04-18T20:31:09.846Z,11.50
2023-04-18T20:33:56.568Z,11.50
2023-04-18T20:36:43.167Z,11.50
2023-04-18T20:39:29.762Z,11.50
2023-04-18T20:42:16.215Z,11.50
2023-04-18T20:45:03.065Z,11.50
2023-04-18T20:47:51.149Z,11.50
2023-04-18T20:50:39.984Z,11.40
2023-04-18T20:53:28.849Z,11.40
2023-04-18T20:56:15.335Z,11.40
2023-04-18T20:59:01.719Z,11.30
2023-04-18T21:01:48.249Z,11.30
2023-04-18T21:04:36.589Z,11.30
2023-04-18T21:07:23.150Z,11.30
2023-04-18T21:10:10.107Z,11.30
2023-04-18T21:12:56.616Z,11.20
2023-04-18T21:15:43.063Z,11.30
2023-04-18T21:18:30.108Z,11.20
2023-04-18T21:21:18.000Z,11.30
2023-04-18T21:24:05.648Z,11.30
2023-04-18T21:26:52.290Z,11.20
2023-04-18T21:29:38.813Z,11.20
2023-04-18T21:32:25.491Z,11.20
2023-04-18T21:35:12.494Z,11.20
2023-04-18T21:38:00.603Z,11.10
2023-04-18T21:40:47.394Z,11.10
2023-04-18T21:43:34.320Z,11.10
2023-04-18T21:46:21.035Z,11.10
2023-04-18T21:49:08.194Z,11.10
2023-04-18T21:51:54.918Z,11.10
2023-04-18T21:54:42.806Z,11.00
2023-04-18T21:57:29.625Z,11.00
2023-04-18T22:00:17.068Z,11.00
2023-04-18T22:03:03.988Z,11.00
2023-04-18T22:05:52.214Z,11.00
2023-04-18T22:08:38.975Z,10.90
2023-04-18T22:11:27.128Z,10.90
2023-04-18T22:14:14.680Z,10.80
2023-04-18T22:17:03.165Z,10.80
2023-04-18T22:19:50.661Z,10.80
2023-04-18T22:22:37.287Z,10.80
2023-04-18T22:25:23.713Z,10.80
2023-04-18T22:28:11.951Z,10.80
2023-04-18T22:30:58.654Z,10.80
2023-04-18T22:33:47.479Z,10.80
2023-04-18T22:36:34.087Z,10.70
2023-04-18T22:39:20.644Z,10.70
2023-04-18T22:42:07.024Z,10.70
2023-04-18T22:44:54.781Z,10.70
2023-04-18T22:47:41.360Z,10.80
2023-04-18T22:50:30.157Z,10.80
2023-04-18T22:53:17.119Z,10.70
2023-04-18T22:56:03.736Z,10.70
2023-04-18T22:58:50.501Z,10.70
2023-04-18T23:01:38.582Z,10.70
2023-04-18T23:04:26.313Z,10.70
2023-04-18T23:07:13.167Z,10.70
2023-04-18T23:09:59.476Z,10.70
2023-04-18T23:12:46.061Z,10.60
2023-04-18T23:15:33.071Z,10.60
2023-04-18T23:18:21.198Z,10.70
2023-04-18T23:21:07.970Z,10.60
2023-04-18T23:23:54.522Z,10.50
2023-04-18T23:26:41.325Z,10.60
2023-04-18T23:29:27.845Z,10.60
2023-04-18T23:32:14.183Z,10.60
2023-04-18T23:35:04.213Z,10.50
2023-04-18T23:37:51.104Z,10.50
2023-04-18T23:40:37.797Z,10.50
2023-04-18T23:43:24.225Z,10.40
2023-04-18T23:46:12.081Z,10.40
2023-04-18T23:48:58.917Z,10.40
2023-04-18T23:51:46.710Z,10.40
2023-04-18T23:54:33.200Z,10.30
2023-04-18T23:57:19.526Z,10.40
